Terminal Aerodrome Forecast
Issued by NWS

Home | Current Version | Previous Version | Text Only | Print | Product List | Glossary Off
Versions: 1 2 3 4 5 6 7 8 9 10 11 12 13 14

000
FTUS43 KFGF 230500
TAFBJI
TAF
KBJI 230525Z 2306/2406 07007KT 5SM -DZSN OVC004
     FM230700 06006KT 2SM -DZSN BR OVC004
     FM231100 04006KT 1 1/2SM -SN BR OVC003
     FM231900 34009KT 3SM -SN OVC004
     FM240000 32009KT 5SM BR OVC007=

USA.gov is the U.S. government's official web portal to all federal, state and local government web resources and services.